Time;durP1;ratioP1;P1;durP2;ratioP2;P2;SDS_P1;SDS_P2;PMS_P1;PMS_P2;Temp;Humidity;BMP_temperature;BMP_pressure;BME280_temperature;BME280_humidity;BME280_pressure;Samples;Min_cycle;Max_cycle;Signal;HPM_P1;HPM_P2
2023/12/17 00:00:27;;;;;;;6.03;3.60;;;;;;;;;;5026581;28;20045;-87
2023/12/17 00:02:53;;;;;;;10.02;4.15;;;;;;;;;;5025564;28;20064;-86
2023/12/17 00:05:19;;;;;;;5.13;2.65;;;;;;;;;;5028306;28;20467;-87
2023/12/17 00:07:45;;;;;;;8.45;4.10;;;;;;;;;;5031631;28;20077;-86
2023/12/17 00:10:11;;;;;;;8.43;3.53;;;;;;;;;;5027021;28;20055;-87
2023/12/17 00:12:37;;;;;;;6.50;3.10;;;;;;;;;;5032417;28;20407;-85
2023/12/17 00:15:03;;;;;;;9.20;2.88;;;;;;;;;;5026318;28;20040;-86
2023/12/17 00:17:29;;;;;;;3.05;1.83;;;;;;;;;;5027939;28;20041;-87
2023/12/17 00:19:55;;;;;;;4.47;2.47;;;;;;;;;;5028483;28;20032;-87
2023/12/17 00:22:21;;;;;;;3.92;2.80;;;;;;;;;;5012290;28;20057;-86
2023/12/17 00:24:47;;;;;;;5.57;2.67;;;;;;;;;;5026662;28;20037;-87
2023/12/17 00:27:15;;;;;;;5.47;2.95;;;;;;;;;;5015407;28;20404;-87
2023/12/17 00:29:41;;;;;;;5.38;2.85;;;;;;;;;;5025936;28;20519;-86
2023/12/17 00:32:07;;;;;;;7.13;3.90;;;;;;;;;;5023186;28;20038;-87
2023/12/17 00:34:33;;;;;;;10.90;4.57;;;;;;;;;;5028688;28;20470;-86
2023/12/17 00:36:59;;;;;;;4.10;2.60;;;;;;;;;;5029541;28;20043;-87
2023/12/17 00:39:25;;;;;;;2.22;1.90;;;;;;;;;;5012705;28;20044;-86
2023/12/17 00:41:51;;;;;;;2.10;1.63;;;;;;;;;;5013735;28;20087;-87
2023/12/17 00:44:17;;;;;;;5.85;3.13;;;;;;;;;;5013903;28;20037;-87
2023/12/17 00:46:43;;;;;;;3.22;2.25;;;;;;;;;;5025902;28;20033;-87
2023/12/17 00:49:09;;;;;;;7.05;2.58;;;;;;;;;;5042456;28;20055;-86
2023/12/17 00:51:35;;;;;;;2.85;2.03;;;;;;;;;;5029911;28;20446;-87
2023/12/17 00:54:01;;;;;;;9.43;3.85;;;;;;;;;;5026278;28;20030;-87
2023/12/17 00:56:28;;;;;;;5.50;2.83;;;;;;;;;;5029909;28;20045;-86
2023/12/17 00:58:54;;;;;;;5.88;2.63;;;;;;;;;;5022942;28;20037;-86
2023/12/17 01:01:20;;;;;;;6.72;2.58;;;;;;;;;;5026997;28;20052;-87
2023/12/17 01:03:46;;;;;;;2.90;1.55;;;;;;;;;;5026000;28;20037;-87
2023/12/17 01:06:12;;;;;;;5.68;2.03;;;;;;;;;;5026659;28;20120;-86
2023/12/17 01:08:38;;;;;;;5.38;2.72;;;;;;;;;;5026020;28;20072;-86
2023/12/17 01:11:04;;;;;;;6.97;3.08;;;;;;;;;;5026279;28;20041;-87
2023/12/17 01:13:30;;;;;;;3.63;2.13;;;;;;;;;;5009469;28;20392;-87
2023/12/17 01:15:56;;;;;;;3.70;3.33;;;;;;;;;;5010514;28;20047;-87
2023/12/17 01:18:22;;;;;;;5.63;3.17;;;;;;;;;;5009903;28;20124;-87
2023/12/17 01:20:48;;;;;;;5.55;2.80;;;;;;;;;;5024603;28;20045;-86
2023/12/17 01:23:14;;;;;;;7.13;3.35;;;;;;;;;;5011614;28;20045;-87
2023/12/17 01:25:40;;;;;;;7.60;3.70;;;;;;;;;;5027662;28;20046;-86
2023/12/17 01:28:06;;;;;;;9.07;2.05;;;;;;;;;;5008433;28;20127;-87
2023/12/17 01:30:32;;;;;;;2.10;1.77;;;;;;;;;;5012317;28;20151;-87
2023/12/17 01:32:58;;;;;;;5.40;3.08;;;;;;;;;;5024569;28;20373;-86
2023/12/17 01:35:24;;;;;;;1.75;1.27;;;;;;;;;;5014441;28;20629;-86
2023/12/17 01:37:50;;;;;;;4.40;3.03;;;;;;;;;;5007139;28;20064;-86
2023/12/17 01:40:16;;;;;;;5.57;2.58;;;;;;;;;;5024608;28;20065;-86
2023/12/17 01:42:42;;;;;;;4.70;2.30;;;;;;;;;;5025089;28;20124;-86
2023/12/17 01:45:08;;;;;;;9.07;2.80;;;;;;;;;;5010970;28;20068;-86
2023/12/17 01:47:35;;;;;;;8.90;4.07;;;;;;;;;;5009973;28;20029;-86
2023/12/17 01:50:01;;;;;;;10.00;3.80;;;;;;;;;;5027636;28;20037;-86
2023/12/17 01:52:27;;;;;;;3.78;1.50;;;;;;;;;;5027850;28;20153;-86
2023/12/17 01:54:53;;;;;;;7.75;2.80;;;;;;;;;;5024780;28;20561;-87
2023/12/17 01:57:19;;;;;;;5.68;2.53;;;;;;;;;;5026887;28;20045;-87
2023/12/17 01:59:46;;;;;;;8.43;3.72;;;;;;;;;;5027337;28;20052;-86
2023/12/17 02:02:12;;;;;;;4.72;3.40;;;;;;;;;;5022581;28;20045;-86
2023/12/17 02:04:38;;;;;;;9.13;3.17;;;;;;;;;;5025238;28;20038;-87
2023/12/17 02:07:04;;;;;;;3.92;2.60;;;;;;;;;;5029162;28;20457;-86
2023/12/17 02:09:30;;;;;;;5.22;2.22;;;;;;;;;;5026282;28;20064;-87
2023/12/17 02:11:56;;;;;;;5.50;3.05;;;;;;;;;;5024329;28;20064;-87
2023/12/17 02:14:22;;;;;;;6.70;3.00;;;;;;;;;;5008652;28;20140;-86
2023/12/17 02:16:48;;;;;;;7.15;4.35;;;;;;;;;;5008397;28;20041;-87
2023/12/17 02:19:14;;;;;;;5.63;3.85;;;;;;;;;;5022999;28;20431;-86
2023/12/17 02:21:40;;;;;;;7.80;4.28;;;;;;;;;;5026998;28;20099;-87
2023/12/17 02:24:06;;;;;;;6.18;4.05;;;;;;;;;;5026867;28;20416;-87
2023/12/17 02:26:32;;;;;;;6.93;4.90;;;;;;;;;;5024230;28;20489;-86
2023/12/17 02:28:58;;;;;;;6.43;4.18;;;;;;;;;;5027379;28;20079;-86
2023/12/17 02:31:24;;;;;;;9.00;4.65;;;;;;;;;;5011448;28;20511;-87
2023/12/17 02:33:50;;;;;;;6.35;3.95;;;;;;;;;;5028586;28;20029;-87
2023/12/17 02:36:16;;;;;;;5.30;2.85;;;;;;;;;;5011457;28;20511;-86
2023/12/17 02:38:42;;;;;;;6.47;3.55;;;;;;;;;;5023201;28;20052;-86
2023/12/17 02:41:08;;;;;;;5.63;3.65;;;;;;;;;;5024507;28;20523;-87
2023/12/17 02:43:34;;;;;;;9.38;7.63;;;;;;;;;;5025644;28;20033;-86
2023/12/17 02:46:00;;;;;;;7.15;5.22;;;;;;;;;;5027137;28;20507;-86
2023/12/17 02:48:26;;;;;;;4.95;2.85;;;;;;;;;;5025782;28;20050;-86
2023/12/17 02:50:52;;;;;;;9.35;5.32;;;;;;;;;;5010261;28;20561;-86
2023/12/17 02:53:18;;;;;;;7.00;4.95;;;;;;;;;;5024055;28;20041;-86
2023/12/17 02:55:44;;;;;;;2.70;1.60;;;;;;;;;;5006480;28;20130;-87
2023/12/17 02:58:11;;;;;;;6.38;3.42;;;;;;;;;;5009386;28;20045;-87
2023/12/17 03:00:37;;;;;;;6.03;4.05;;;;;;;;;;5011120;28;20124;-85
2023/12/17 03:03:03;;;;;;;10.73;4.97;;;;;;;;;;5025066;28;20061;-86
2023/12/17 03:05:29;;;;;;;7.35;2.90;;;;;;;;;;5024874;28;20116;-84
2023/12/17 03:07:54;;;;;;;6.07;4.88;;;;;;;;;;5020523;28;20117;-86
2023/12/17 03:10:21;;;;;;;7.72;4.20;;;;;;;;;;5023818;28;20400;-86
2023/12/17 03:12:47;;;;;;;7.72;4.30;;;;;;;;;;5026467;28;20449;-86
2023/12/17 03:15:13;;;;;;;5.63;3.40;;;;;;;;;;5023566;28;20068;-86
2023/12/17 03:17:39;;;;;;;6.90;3.38;;;;;;;;;;5024609;28;20119;-86
2023/12/17 03:20:05;;;;;;;8.35;4.10;;;;;;;;;;5007731;28;20440;-85
2023/12/17 03:22:31;;;;;;;9.43;4.18;;;;;;;;;;5018395;28;20076;-86
2023/12/17 03:24:58;;;;;;;7.55;4.63;;;;;;;;;;5023105;28;20033;-86
2023/12/17 03:27:24;;;;;;;9.40;3.83;;;;;;;;;;5007754;28;20092;-87
2023/12/17 03:29:51;;;;;;;6.15;3.45;;;;;;;;;;5028171;28;20403;-86
2023/12/17 03:32:17;;;;;;;7.38;2.92;;;;;;;;;;5027744;28;20040;-86
2023/12/17 03:34:43;;;;;;;15.02;4.22;;;;;;;;;;5033174;28;20511;-86
2023/12/17 03:37:09;;;;;;;7.88;3.97;;;;;;;;;;5009669;28;20037;-85
2023/12/17 03:39:35;;;;;;;8.02;4.07;;;;;;;;;;5011912;28;20540;-86
2023/12/17 03:42:02;;;;;;;10.57;6.05;;;;;;;;;;5027039;28;20041;-86
2023/12/17 03:44:29;;;;;;;8.32;4.40;;;;;;;;;;5012752;28;20076;-86
2023/12/17 03:46:55;;;;;;;9.38;5.25;;;;;;;;;;5026849;28;20103;-86
2023/12/17 03:49:21;;;;;;;9.27;4.90;;;;;;;;;;5010246;28;20041;-86
2023/12/17 03:51:47;;;;;;;8.98;4.90;;;;;;;;;;5032455;28;20036;-86
2023/12/17 03:54:13;;;;;;;9.70;5.35;;;;;;;;;;5008921;28;20037;-86
2023/12/17 03:56:45;;;;;;;9.10;5.35;;;;;;;;;;5027951;28;20045;-87
2023/12/17 03:59:11;;;;;;;3.95;2.10;;;;;;;;;;5042953;28;20032;-86
2023/12/17 04:01:43;;;;;;;4.05;3.03;;;;;;;;;;5007254;28;20572;-85
2023/12/17 04:04:09;;;;;;;11.20;5.60;;;;;;;;;;5045520;28;20048;-86
2023/12/17 04:06:35;;;;;;;10.00;5.38;;;;;;;;;;5026051;28;20041;-86
2023/12/17 04:09:02;;;;;;;9.02;5.57;;;;;;;;;;5024126;28;20041;-86
2023/12/17 04:11:28;;;;;;;9.95;5.28;;;;;;;;;;5013012;28;20051;-86
2023/12/17 04:13:54;;;;;;;7.72;4.72;;;;;;;;;;5027224;28;20116;-87
2023/12/17 04:16:20;;;;;;;6.95;3.67;;;;;;;;;;5011091;28;20037;-87
2023/12/17 04:18:46;;;;;;;6.30;4.43;;;;;;;;;;5028233;28;20047;-86
2023/12/17 04:21:12;;;;;;;4.45;3.30;;;;;;;;;;5008324;28;20056;-86
2023/12/17 04:23:38;;;;;;;9.70;4.20;;;;;;;;;;5028842;28;20049;-87
2023/12/17 04:26:04;;;;;;;9.30;3.83;;;;;;;;;;5027344;28;20128;-86
2023/12/17 04:28:30;;;;;;;6.05;4.15;;;;;;;;;;5011272;28;20038;-84
2023/12/17 04:30:56;;;;;;;3.10;2.65;;;;;;;;;;5026878;28;20423;-87
2023/12/17 04:33:22;;;;;;;10.98;6.13;;;;;;;;;;5011307;28;20179;-86
2023/12/17 04:35:48;;;;;;;9.07;4.72;;;;;;;;;;5031138;28;20162;-87
2023/12/17 04:38:16;;;;;;;4.55;3.13;;;;;;;;;;5026797;28;20044;-86
2023/12/17 04:40:45;;;;;;;3.40;2.38;;;;;;;;;;5042355;28;20417;-87
2023/12/17 04:43:11;;;;;;;7.30;4.22;;;;;;;;;;5014634;28;20033;-86
2023/12/17 04:45:37;;;;;;;7.45;3.22;;;;;;;;;;5025473;28;20041;-86
2023/12/17 04:48:03;;;;;;;3.00;2.15;;;;;;;;;;5026175;28;20037;-87
2023/12/17 04:50:31;;;;;;;2.58;1.65;;;;;;;;;;5009049;28;20045;-87
2023/12/17 04:52:57;;;;;;;7.18;3.78;;;;;;;;;;5028444;28;20041;-87
2023/12/17 04:55:23;;;;;;;6.40;4.68;;;;;;;;;;5026135;28;20041;-86
2023/12/17 04:57:49;;;;;;;7.40;3.88;;;;;;;;;;5023876;28;20443;-86
2023/12/17 05:00:15;;;;;;;8.25;3.40;;;;;;;;;;5009306;28;20033;-86
2023/12/17 05:02:41;;;;;;;7.53;5.20;;;;;;;;;;5024597;28;20041;-86
2023/12/17 05:05:08;;;;;;;5.10;3.60;;;;;;;;;;5024644;28;20095;-87
2023/12/17 05:07:34;;;;;;;9.13;5.38;;;;;;;;;;5011396;28;20038;-86
2023/12/17 05:10:00;;;;;;;4.25;2.92;;;;;;;;;;5011348;28;20032;-87
2023/12/17 05:12:26;;;;;;;11.55;6.10;;;;;;;;;;5030060;28;20098;-86
2023/12/17 05:14:52;;;;;;;6.15;3.25;;;;;;;;;;5028451;28;20040;-87
2023/12/17 05:17:18;;;;;;;5.93;3.40;;;;;;;;;;5027645;28;20098;-86
2023/12/17 05:19:44;;;;;;;4.22;3.30;;;;;;;;;;5009594;28;20190;-87
2023/12/17 05:22:10;;;;;;;10.85;4.75;;;;;;;;;;5011973;28;20570;-87
2023/12/17 05:24:35;;;;;;;3.88;3.47;;;;;;;;;;5026527;28;20041;-86
2023/12/17 05:27:01;;;;;;;9.98;5.30;;;;;;;;;;5026790;28;20045;-86
2023/12/17 05:29:27;;;;;;;9.13;5.13;;;;;;;;;;5030176;28;20041;-86
2023/12/17 05:31:53;;;;;;;2.78;2.22;;;;;;;;;;5028343;28;20549;-86
2023/12/17 05:34:20;;;;;;;9.98;6.68;;;;;;;;;;5032336;28;20076;-86
2023/12/17 05:36:46;;;;;;;6.82;4.13;;;;;;;;;;5025658;28;20041;-85
2023/12/17 05:39:12;;;;;;;4.88;3.42;;;;;;;;;;5023232;28;20048;-86
2023/12/17 05:41:38;;;;;;;6.30;3.47;;;;;;;;;;5014460;28;20496;-87
2023/12/17 05:44:04;;;;;;;3.45;1.98;;;;;;;;;;5027193;28;20037;-86
2023/12/17 05:46:30;;;;;;;6.05;4.10;;;;;;;;;;5026406;28;20059;-87
2023/12/17 05:48:56;;;;;;;6.78;5.35;;;;;;;;;;5025623;28;20132;-87
2023/12/17 05:51:22;;;;;;;5.35;4.22;;;;;;;;;;5009217;28;20119;-86
2023/12/17 05:53:48;;;;;;;13.57;3.58;;;;;;;;;;5043280;28;20111;-87
2023/12/17 05:56:14;;;;;;;6.32;4.05;;;;;;;;;;5009377;28;20124;-86
2023/12/17 05:58:41;;;;;;;8.07;3.92;;;;;;;;;;5010575;28;20133;-87
2023/12/17 06:01:07;;;;;;;6.00;3.47;;;;;;;;;;5007385;28;20455;-87
2023/12/17 06:03:33;;;;;;;4.30;3.40;;;;;;;;;;5009736;28;20098;-87
2023/12/17 06:05:59;;;;;;;8.25;5.03;;;;;;;;;;5007468;28;20033;-87
2023/12/17 06:08:25;;;;;;;6.70;3.67;;;;;;;;;;5026707;28;20077;-86
2023/12/17 06:10:51;;;;;;;6.82;4.20;;;;;;;;;;5035225;28;20475;-86
2023/12/17 06:13:18;;;;;;;6.15;4.18;;;;;;;;;;5029122;28;20072;-85
2023/12/17 06:15:44;;;;;;;5.32;3.63;;;;;;;;;;5027790;28;20442;-86
2023/12/17 06:18:10;;;;;;;7.22;4.93;;;;;;;;;;5026860;28;20041;-86
2023/12/17 06:20:36;;;;;;;8.68;4.10;;;;;;;;;;5025580;28;20045;-87
2023/12/17 06:23:02;;;;;;;6.47;3.70;;;;;;;;;;5009901;28;20049;-86
2023/12/17 06:25:28;;;;;;;3.47;2.85;;;;;;;;;;5026710;28;20056;-86
2023/12/17 06:27:54;;;;;;;6.45;3.20;;;;;;;;;;5012128;28;20039;-86
2023/12/17 06:30:20;;;;;;;8.27;1.70;;;;;;;;;;5031349;28;20033;-86
2023/12/17 06:32:46;;;;;;;5.72;3.83;;;;;;;;;;5026778;28;20128;-87
2023/12/17 06:35:12;;;;;;;6.18;4.70;;;;;;;;;;5026451;28;20033;-87
2023/12/17 06:37:38;;;;;;;6.30;2.92;;;;;;;;;;5005683;28;20099;-88
2023/12/17 06:40:04;;;;;;;2.75;2.03;;;;;;;;;;5014176;28;20101;-89
2023/12/17 06:42:30;;;;;;;3.40;2.33;;;;;;;;;;5014161;28;20059;-87
2023/12/17 06:44:56;;;;;;;7.80;4.53;;;;;;;;;;5015285;28;20033;-88
2023/12/17 06:47:22;;;;;;;7.00;4.53;;;;;;;;;;5013899;28;20037;-88
2023/12/17 06:49:48;;;;;;;6.32;4.72;;;;;;;;;;5027408;28;20044;-88
2023/12/17 06:52:14;;;;;;;8.07;4.57;;;;;;;;;;5008863;28;20112;-88
2023/12/17 06:54:40;;;;;;;8.38;4.30;;;;;;;;;;5022140;28;20120;-86
2023/12/17 06:57:06;;;;;;;7.28;5.13;;;;;;;;;;5026007;28;20582;-89
2023/12/17 06:59:32;;;;;;;9.20;4.32;;;;;;;;;;5009492;28;20041;-88
2023/12/17 07:01:58;;;;;;;4.55;3.20;;;;;;;;;;5008676;28;20033;-90
2023/12/17 07:04:24;;;;;;;6.10;3.53;;;;;;;;;;5009164;28;20115;-90
2023/12/17 07:06:50;;;;;;;6.38;4.22;;;;;;;;;;5014055;28;20037;-89
2023/12/17 07:09:16;;;;;;;9.25;4.97;;;;;;;;;;5011130;28;20171;-88
2023/12/17 07:11:42;;;;;;;8.00;3.15;;;;;;;;;;5027686;28;20468;-88
2023/12/17 07:14:08;;;;;;;5.93;3.00;;;;;;;;;;5020209;28;20037;-90
2023/12/17 07:16:34;;;;;;;7.05;3.50;;;;;;;;;;5007102;28;20427;-90
2023/12/17 07:19:00;;;;;;;10.05;6.45;;;;;;;;;;5006408;28;20086;-87
2023/12/17 07:21:26;;;;;;;8.32;5.90;;;;;;;;;;5026884;28;20512;-88
2023/12/17 07:23:52;;;;;;;7.03;5.35;;;;;;;;;;5025170;28;20447;-90
2023/12/17 07:26:18;;;;;;;10.30;6.63;;;;;;;;;;5004002;28;20180;-90
2023/12/17 07:28:44;;;;;;;9.38;6.10;;;;;;;;;;5026850;28;20037;-88
2023/12/17 07:31:10;;;;;;;5.80;3.75;;;;;;;;;;5025325;28;20037;-87
2023/12/17 07:33:36;;;;;;;9.63;6.05;;;;;;;;;;5027037;28;20037;-88
2023/12/17 07:36:02;;;;;;;9.63;5.28;;;;;;;;;;5026811;28;20158;-89
2023/12/17 07:38:28;;;;;;;5.43;4.15;;;;;;;;;;5008877;28;20117;-88
2023/12/17 07:40:54;;;;;;;9.98;6.32;;;;;;;;;;5025005;28;22578;-86
2023/12/17 07:43:20;;;;;;;6.45;3.53;;;;;;;;;;5027378;28;20048;-88
2023/12/17 07:45:46;;;;;;;6.05;4.07;;;;;;;;;;5009947;28;20048;-87
2023/12/17 07:48:12;;;;;;;11.48;6.38;;;;;;;;;;5012847;28;20041;-88
2023/12/17 07:50:40;;;;;;;3.55;3.17;;;;;;;;;;5010339;28;20041;-88
2023/12/17 07:53:06;;;;;;;4.38;3.22;;;;;;;;;;5027211;28;20111;-89
2023/12/17 07:55:32;;;;;;;16.08;7.05;;;;;;;;;;5012958;28;20464;-86
2023/12/17 07:57:58;;;;;;;12.45;7.35;;;;;;;;;;5029170;28;20072;-89
2023/12/17 08:00:24;;;;;;;6.13;3.40;;;;;;;;;;5012533;28;20076;-88
2023/12/17 08:02:50;;;;;;;4.45;3.15;;;;;;;;;;5024708;28;20518;-88
2023/12/17 08:05:17;;;;;;;6.72;5.10;;;;;;;;;;5031035;28;20034;-88
2023/12/17 08:07:43;;;;;;;8.57;6.45;;;;;;;;;;5030062;28;20565;-87
2023/12/17 08:10:09;;;;;;;13.52;8.43;;;;;;;;;;5014186;28;20040;-88
2023/12/17 08:12:35;;;;;;;6.53;5.20;;;;;;;;;;5032720;28;20036;-87
2023/12/17 08:15:01;;;;;;;12.65;8.70;;;;;;;;;;5024397;28;20037;-86
2023/12/17 08:17:27;;;;;;;10.00;6.03;;;;;;;;;;5025805;28;20037;-89
2023/12/17 08:19:53;;;;;;;12.77;8.32;;;;;;;;;;5013810;28;20094;-90
2023/12/17 08:22:19;;;;;;;6.95;3.28;;;;;;;;;;5014956;28;20385;-92
2023/12/17 08:24:45;;;;;;;13.65;8.07;;;;;;;;;;5015642;28;20388;-91
2023/12/17 08:27:13;;;;;;;10.23;6.50;;;;;;;;;;5015795;28;20140;-89
2023/12/17 08:29:40;;;;;;;10.38;7.03;;;;;;;;;;5027007;28;20045;-86
2023/12/17 08:32:07;;;;;;;13.60;9.43;;;;;;;;;;5030299;28;20045;-87
2023/12/17 08:34:33;;;;;;;13.32;8.15;;;;;;;;;;5029186;28;20056;-87
2023/12/17 08:36:59;;;;;;;9.63;6.32;;;;;;;;;;5029464;28;20420;-87
2023/12/17 08:39:25;;;;;;;15.95;7.93;;;;;;;;;;5024719;28;20045;-87
2023/12/17 08:41:51;;;;;;;8.98;5.15;;;;;;;;;;5026857;28;20370;-87
2023/12/17 08:44:20;;;;;;;10.00;5.78;;;;;;;;;;5029846;28;20115;-87
2023/12/17 08:46:46;;;;;;;8.80;5.28;;;;;;;;;;5028933;28;20122;-87
2023/12/17 08:49:12;;;;;;;7.32;4.47;;;;;;;;;;5024134;28;20049;-87
2023/12/17 08:51:40;;;;;;;6.40;4.10;;;;;;;;;;5011761;28;20045;-86
2023/12/17 08:54:06;;;;;;;9.18;5.47;;;;;;;;;;5025092;28;20037;-86
2023/12/17 08:56:32;;;;;;;6.80;3.92;;;;;;;;;;5022817;28;20451;-87
2023/12/17 08:58:58;;;;;;;14.68;6.05;;;;;;;;;;5028295;28;20106;-87
2023/12/17 09:01:24;;;;;;;9.82;4.28;;;;;;;;;;5027452;28;20033;-87
2023/12/17 09:03:50;;;;;;;13.38;6.82;;;;;;;;;;5028280;28;20037;-87
2023/12/17 09:06:16;;;;;;;7.65;3.47;;;;;;;;;;5012664;28;20067;-86
2023/12/17 09:08:42;;;;;;;10.85;4.78;;;;;;;;;;5008345;28;20545;-86
2023/12/17 09:11:09;;;;;;;8.90;5.10;;;;;;;;;;5031454;28;20136;-86
2023/12/17 09:13:35;;;;;;;15.90;7.05;;;;;;;;;;5026745;28;20091;-86
2023/12/17 09:16:01;;;;;;;5.63;3.55;;;;;;;;;;5014045;28;20068;-87
2023/12/17 09:18:27;;;;;;;9.63;5.25;;;;;;;;;;5031611;28;20045;-87
2023/12/17 09:20:53;;;;;;;12.32;5.78;;;;;;;;;;5028897;28;20095;-86
2023/12/17 09:23:19;;;;;;;10.48;5.10;;;;;;;;;;5032499;28;20045;-86
2023/12/17 09:25:45;;;;;;;15.63;8.55;;;;;;;;;;5015142;28;20446;-85
2023/12/17 09:28:11;;;;;;;13.40;8.73;;;;;;;;;;5021353;28;20033;-87
2023/12/17 09:30:37;;;;;;;8.10;4.00;;;;;;;;;;5013034;28;20044;-86
2023/12/17 09:33:03;;;;;;;9.48;5.70;;;;;;;;;;5012025;28;20093;-84
2023/12/17 09:35:29;;;;;;;11.00;5.55;;;;;;;;;;5030434;28;20505;-84
2023/12/17 09:37:55;;;;;;;11.75;6.70;;;;;;;;;;5029056;28;20123;-85
2023/12/17 09:40:21;;;;;;;12.57;6.15;;;;;;;;;;5028832;28;20171;-86
2023/12/17 09:42:52;;;;;;;10.38;5.97;;;;;;;;;;5010183;28;20033;-85
2023/12/17 09:45:18;;;;;;;11.70;7.43;;;;;;;;;;5012291;28;20098;-85
2023/12/17 09:47:44;;;;;;;10.52;6.03;;;;;;;;;;5030883;28;20045;-85
2023/12/17 09:50:11;;;;;;;16.95;10.10;;;;;;;;;;5029418;28;20041;-85
2023/12/17 09:52:41;;;;;;;13.90;7.53;;;;;;;;;;5032544;28;20041;-85
2023/12/17 09:55:07;;;;;;;17.20;7.72;;;;;;;;;;5027090;28;20068;-85
2023/12/17 09:57:33;;;;;;;19.98;9.90;;;;;;;;;;5027781;28;20561;-86
2023/12/17 09:59:59;;;;;;;15.05;8.30;;;;;;;;;;5010421;28;20040;-86
2023/12/17 10:02:25;;;;;;;15.70;7.13;;;;;;;;;;5017586;28;20098;-86
2023/12/17 10:04:51;;;;;;;20.88;9.52;;;;;;;;;;5029804;28;20041;-86
2023/12/17 10:07:18;;;;;;;12.55;8.27;;;;;;;;;;5029448;28;20060;-86
2023/12/17 10:09:44;;;;;;;14.02;8.02;;;;;;;;;;5028897;28;20044;-87
2023/12/17 10:12:10;;;;;;;16.00;6.93;;;;;;;;;;5025050;28;20442;-86
2023/12/17 10:14:36;;;;;;;19.40;10.05;;;;;;;;;;5011658;28;20507;-87
2023/12/17 10:17:02;;;;;;;10.85;6.90;;;;;;;;;;5021497;28;20144;-86
2023/12/17 10:19:28;;;;;;;13.68;8.95;;;;;;;;;;5006730;28;20115;-86
2023/12/17 10:21:54;;;;;;;13.02;6.35;;;;;;;;;;5018569;28;20500;-87
2023/12/17 10:24:35;;;;;;;18.75;9.57;;;;;;;;;;5018742;28;20064;-86
2023/12/17 10:27:04;;;;;;;21.27;10.68;;;;;;;;;;5021636;28;20045;-86
2023/12/17 10:29:31;;;;;;;19.10;8.02;;;;;;;;;;5024538;28;20034;-86
2023/12/17 10:31:57;;;;;;;15.88;8.60;;;;;;;;;;5023100;28;20420;-86
2023/12/17 10:34:23;;;;;;;19.23;10.20;;;;;;;;;;5022373;28;20033;-84
2023/12/17 10:36:50;;;;;;;13.73;7.53;;;;;;;;;;5023664;28;20042;-86
2023/12/17 10:39:17;;;;;;;11.20;6.32;;;;;;;;;;5020419;28;20045;-86
2023/12/17 10:41:43;;;;;;;3.63;2.70;;;;;;;;;;5021583;28;20048;-87
2023/12/17 10:44:12;;;;;;;12.30;6.32;;;;;;;;;;5005361;28;20037;-87
2023/12/17 10:46:42;;;;;;;8.85;4.25;;;;;;;;;;5006141;28;20034;-87
2023/12/17 10:49:09;;;;;;;7.90;3.90;;;;;;;;;;5005745;28;20057;-87
2023/12/17 10:51:37;;;;;;;7.25;4.32;;;;;;;;;;5026478;28;20038;-87
2023/12/17 10:54:03;;;;;;;7.80;4.63;;;;;;;;;;5014732;28;20485;-87
2023/12/17 10:56:34;;;;;;;8.38;4.47;;;;;;;;;;5003623;28;20038;-87
2023/12/17 10:59:01;;;;;;;11.43;7.97;;;;;;;;;;5018940;28;20045;-86
2023/12/17 11:01:28;;;;;;;5.72;3.83;;;;;;;;;;5019251;28;20042;-85
2023/12/17 11:03:54;;;;;;;8.93;4.10;;;;;;;;;;5005801;28;20048;-87
2023/12/17 11:06:20;;;;;;;10.60;5.57;;;;;;;;;;5021469;28;20041;-87
2023/12/17 11:08:46;;;;;;;5.53;3.55;;;;;;;;;;5010658;28;20033;-87
2023/12/17 11:11:12;;;;;;;9.90;5.72;;;;;;;;;;5002333;28;20489;-87
2023/12/17 11:13:39;;;;;;;11.38;5.88;;;;;;;;;;5018589;28;20042;-86
2023/12/17 11:16:21;;;;;;;8.18;4.07;;;;;;;;;;5003812;28;20045;-84
2023/12/17 11:18:47;;;;;;;10.82;6.65;;;;;;;;;;5007398;28;20064;-87
2023/12/17 11:21:14;;;;;;;9.10;5.28;;;;;;;;;;5000653;28;20069;-87
2023/12/17 11:23:40;;;;;;;11.00;5.38;;;;;;;;;;5021941;28;20413;-86
2023/12/17 11:26:06;;;;;;;6.30;3.05;;;;;;;;;;5025255;28;20386;-86
2023/12/17 11:28:32;;;;;;;12.30;7.13;;;;;;;;;;5024013;28;20038;-86
2023/12/17 11:30:58;;;;;;;10.40;7.57;;;;;;;;;;5019699;28;20050;-85
2023/12/17 11:33:25;;;;;;;10.05;4.95;;;;;;;;;;5017687;28;20489;-86
2023/12/17 11:35:51;;;;;;;12.20;6.78;;;;;;;;;;5011151;28;20037;-86
2023/12/17 11:38:20;;;;;;;14.77;7.80;;;;;;;;;;5024702;28;20129;-86
2023/12/17 11:40:46;;;;;;;12.57;6.90;;;;;;;;;;5004006;28;20065;-88
2023/12/17 11:43:12;;;;;;;13.40;6.70;;;;;;;;;;5024016;28;20067;-87
2023/12/17 11:45:47;;;;;;;11.70;6.38;;;;;;;;;;5007707;28;20049;-87
2023/12/17 11:48:23;;;;;;;13.48;7.55;;;;;;;;;;5018059;28;20428;-87
2023/12/17 11:50:50;;;;;;;12.63;7.10;;;;;;;;;;5020754;28;20065;-86
2023/12/17 11:53:17;;;;;;;16.20;7.28;;;;;;;;;;5011702;28;20041;-86
2023/12/17 11:55:44;;;;;;;10.50;6.78;;;;;;;;;;5005161;28;20041;-86
2023/12/17 11:58:10;;;;;;;16.58;8.60;;;;;;;;;;5028623;28;20107;-86
2023/12/17 12:00:37;;;;;;;10.27;6.18;;;;;;;;;;5025780;28;20045;-87
2023/12/17 12:03:03;;;;;;;8.73;5.45;;;;;;;;;;5027333;28;20404;-85
2023/12/17 12:05:29;;;;;;;17.42;8.23;;;;;;;;;;5027904;28;20053;-86
2023/12/17 12:07:57;;;;;;;18.23;9.20;;;;;;;;;;5030823;28;20037;-90
2023/12/17 12:10:23;;;;;;;19.40;8.52;;;;;;;;;;5032179;28;20037;-91
2023/12/17 12:13:04;;;;;;;12.73;7.25;;;;;;;;;;5012105;28;20029;-91
2023/12/17 12:15:31;;;;;;;14.27;8.45;;;;;;;;;;5022740;28;20048;-90
2023/12/17 12:17:57;;;;;;;13.13;6.45;;;;;;;;;;5011281;28;20048;-91
2023/12/17 12:20:34;;;;;;;12.23;6.32;;;;;;;;;;5011272;28;20040;-90
2023/12/17 12:23:00;;;;;;;16.88;10.50;;;;;;;;;;4987285;28;20050;-89
2023/12/17 12:25:27;;;;;;;20.95;10.65;;;;;;;;;;5008417;28;20049;-90
2023/12/17 12:27:53;;;;;;;12.80;6.97;;;;;;;;;;5005630;28;20115;-90
2023/12/17 12:30:28;;;;;;;8.30;5.32;;;;;;;;;;5005301;28;20089;-90
2023/12/17 12:32:55;;;;;;;17.98;8.15;;;;;;;;;;5009322;28;20091;-91
2023/12/17 12:35:29;;;;;;;16.67;7.68;;;;;;;;;;5008736;28;20046;-91
2023/12/17 12:37:57;;;;;;;17.63;8.40;;;;;;;;;;4991180;28;20037;-91
2023/12/17 12:40:31;;;;;;;18.83;9.80;;;;;;;;;;5006573;28;20045;-91
2023/12/17 12:43:03;;;;;;;20.83;11.75;;;;;;;;;;5002020;28;20143;-91
2023/12/17 12:45:29;;;;;;;17.10;9.05;;;;;;;;;;4995485;28;20188;-90
2023/12/17 12:47:56;;;;;;;13.43;8.13;;;;;;;;;;5000311;28;20034;-90
2023/12/17 12:50:22;;;;;;;19.45;9.63;;;;;;;;;;5005048;28;20726;-89
2023/12/17 12:52:49;;;;;;;9.52;5.32;;;;;;;;;;4993566;28;20049;-87
2023/12/17 12:55:15;;;;;;;24.50;11.07;;;;;;;;;;5008337;28;20034;-88
2023/12/17 12:57:41;;;;;;;17.20;9.43;;;;;;;;;;5004706;28;20045;-86
2023/12/17 13:00:07;;;;;;;14.20;8.32;;;;;;;;;;5002028;28;20566;-85
2023/12/17 13:02:33;;;;;;;22.42;10.77;;;;;;;;;;5001739;28;20196;-86
2023/12/17 13:04:59;;;;;;;14.15;7.60;;;;;;;;;;5003549;28;20042;-85
2023/12/17 13:07:25;;;;;;;18.77;9.20;;;;;;;;;;5004335;28;20111;-86
2023/12/17 13:09:51;;;;;;;14.98;8.45;;;;;;;;;;5003600;28;20425;-85
2023/12/17 13:12:18;;;;;;;18.20;8.45;;;;;;;;;;4987678;28;20097;-85
2023/12/17 13:14:44;;;;;;;17.40;9.25;;;;;;;;;;4985948;28;20405;-86
2023/12/17 13:17:10;;;;;;;15.95;8.70;;;;;;;;;;5001375;28;20038;-86
2023/12/17 13:19:36;;;;;;;18.42;9.88;;;;;;;;;;5003654;28;20065;-85
2023/12/17 13:22:02;;;;;;;14.00;6.93;;;;;;;;;;5005142;28;20056;-86
2023/12/17 13:24:28;;;;;;;16.80;9.05;;;;;;;;;;5023834;28;20053;-86
2023/12/17 13:26:54;;;;;;;14.30;7.50;;;;;;;;;;5025830;28;20041;-85
2023/12/17 13:29:19;;;;;;;15.35;7.97;;;;;;;;;;5023681;28;20029;-85
2023/12/17 13:31:45;;;;;;;19.17;9.07;;;;;;;;;;5025988;28;20079;-85
2023/12/17 13:34:11;;;;;;;17.23;9.20;;;;;;;;;;5023405;28;20040;-85
2023/12/17 13:36:37;;;;;;;13.65;6.35;;;;;;;;;;5028575;28;20041;-86
2023/12/17 13:39:04;;;;;;;15.27;8.25;;;;;;;;;;5012281;28;20385;-85
2023/12/17 13:41:30;;;;;;;16.13;8.32;;;;;;;;;;5027496;28;20083;-85
2023/12/17 13:43:56;;;;;;;8.43;4.90;;;;;;;;;;5026047;28;20045;-85
2023/12/17 13:46:22;;;;;;;15.73;8.50;;;;;;;;;;5029953;28;20499;-85
2023/12/17 13:48:48;;;;;;;15.40;7.90;;;;;;;;;;5022232;28;20060;-85
2023/12/17 13:51:15;;;;;;;16.60;8.48;;;;;;;;;;5023756;28;20399;-86
2023/12/17 13:53:42;;;;;;;18.25;9.20;;;;;;;;;;5008133;28;20083;-86
2023/12/17 13:56:08;;;;;;;16.40;9.15;;;;;;;;;;5026663;28;20171;-86
2023/12/17 13:58:34;;;;;;;15.85;9.30;;;;;;;;;;5026694;28;20037;-86
2023/12/17 14:01:00;;;;;;;20.15;9.40;;;;;;;;;;5021653;28;20037;-86
2023/12/17 14:03:27;;;;;;;15.55;8.82;;;;;;;;;;5029645;28;20544;-86
2023/12/17 14:05:54;;;;;;;16.33;8.65;;;;;;;;;;5012066;28;20480;-86
2023/12/17 14:08:20;;;;;;;17.60;9.55;;;;;;;;;;5010790;28;20041;-86
2023/12/17 14:10:47;;;;;;;18.90;10.15;;;;;;;;;;5027201;28;20498;-86
2023/12/17 14:13:13;;;;;;;18.75;9.85;;;;;;;;;;5011554;28;20041;-86
2023/12/17 14:15:39;;;;;;;17.27;9.23;;;;;;;;;;5025255;28;20045;-86
2023/12/17 14:18:05;;;;;;;17.42;8.98;;;;;;;;;;5026359;28;20040;-86
2023/12/17 14:20:31;;;;;;;20.98;9.57;;;;;;;;;;5009274;28;20124;-86
2023/12/17 14:22:57;;;;;;;18.67;8.52;;;;;;;;;;5012149;28;20056;-86
2023/12/17 14:25:23;;;;;;;17.00;8.73;;;;;;;;;;5025404;28;20049;-86
2023/12/17 14:27:49;;;;;;;17.00;8.30;;;;;;;;;;5026320;28;20033;-86
2023/12/17 14:30:15;;;;;;;15.10;8.02;;;;;;;;;;5009622;28;20498;-86
2023/12/17 14:32:41;;;;;;;16.65;9.45;;;;;;;;;;5025332;28;20181;-86